sensor_id;sensor_type;location;lat;lon;timestamp;P1;durP1;ratioP1;P2;durP2;ratioP2
38190;SDS011;25191;47.510;19.124;2022-11-30T00:05:17;17.15;;;10.52;;
38190;SDS011;25191;47.510;19.124;2022-11-30T00:15:17;14.55;;;10.30;;
38190;SDS011;25191;47.510;19.124;2022-11-30T00:25:17;14.95;;;10.43;;
38190;SDS011;25191;47.510;19.124;2022-11-30T00:35:18;14.90;;;9.93;;
38190;SDS011;25191;47.510;19.124;2022-11-30T00:45:18;14.45;;;9.82;;
38190;SDS011;25191;47.510;19.124;2022-11-30T00:55:19;12.98;;;9.60;;
38190;SDS011;25191;47.510;19.124;2022-11-30T01:05:19;13.05;;;9.75;;
38190;SDS011;25191;47.510;19.124;2022-11-30T01:15:19;13.50;;;9.43;;
38190;SDS011;25191;47.510;19.124;2022-11-30T01:25:20;13.98;;;9.05;;
38190;SDS011;25191;47.510;19.124;2022-11-30T01:35:21;13.45;;;9.25;;
38190;SDS011;25191;47.510;19.124;2022-11-30T01:45:21;14.38;;;8.77;;
38190;SDS011;25191;47.510;19.124;2022-11-30T01:55:32;10.75;;;8.25;;
38190;SDS011;25191;47.510;19.124;2022-11-30T02:05:37;11.88;;;8.25;;
38190;SDS011;25191;47.510;19.124;2022-11-30T02:15:50;10.43;;;7.83;;
38190;SDS011;25191;47.510;19.124;2022-11-30T02:36:25;10.75;;;7.78;;
38190;SDS011;25191;47.510;19.124;2022-11-30T02:56:39;10.70;;;7.93;;
38190;SDS011;25191;47.510;19.124;2022-11-30T03:06:39;10.77;;;7.43;;
38190;SDS011;25191;47.510;19.124;2022-11-30T03:16:40;11.52;;;7.50;;
38190;SDS011;25191;47.510;19.124;2022-11-30T03:26:40;9.40;;;7.30;;
38190;SDS011;25191;47.510;19.124;2022-11-30T03:36:41;10.13;;;6.82;;
38190;SDS011;25191;47.510;19.124;2022-11-30T03:46:42;8.48;;;6.65;;
38190;SDS011;25191;47.510;19.124;2022-11-30T03:56:42;8.98;;;6.72;;
38190;SDS011;25191;47.510;19.124;2022-11-30T04:06:43;8.98;;;6.53;;
38190;SDS011;25191;47.510;19.124;2022-11-30T04:16:43;9.20;;;6.70;;
38190;SDS011;25191;47.510;19.124;2022-11-30T04:26:43;7.90;;;5.95;;
38190;SDS011;25191;47.510;19.124;2022-11-30T04:46:49;7.78;;;6.05;;
38190;SDS011;25191;47.510;19.124;2022-11-30T04:56:50;7.18;;;5.45;;
38190;SDS011;25191;47.510;19.124;2022-11-30T05:06:51;8.32;;;5.63;;
38190;SDS011;25191;47.510;19.124;2022-11-30T05:16:51;9.15;;;6.60;;
38190;SDS011;25191;47.510;19.124;2022-11-30T05:26:52;9.40;;;6.18;;
38190;SDS011;25191;47.510;19.124;2022-11-30T05:36:52;23.98;;;7.68;;
38190;SDS011;25191;47.510;19.124;2022-11-30T05:46:52;17.98;;;7.40;;
38190;SDS011;25191;47.510;19.124;2022-11-30T05:56:53;25.40;;;8.85;;
38190;SDS011;25191;47.510;19.124;2022-11-30T06:06:53;23.73;;;8.65;;
38190;SDS011;25191;47.510;19.124;2022-11-30T06:16:56;19.70;;;8.25;;
38190;SDS011;25191;47.510;19.124;2022-11-30T06:26:57;17.88;;;7.35;;
38190;SDS011;25191;47.510;19.124;2022-11-30T06:36:57;19.77;;;7.32;;
38190;SDS011;25191;47.510;19.124;2022-11-30T06:46:58;18.20;;;7.20;;
38190;SDS011;25191;47.510;19.124;2022-11-30T06:56:58;13.73;;;6.50;;
38190;SDS011;25191;47.510;19.124;2022-11-30T07:06:58;14.27;;;6.50;;
38190;SDS011;25191;47.510;19.124;2022-11-30T07:16:59;14.98;;;6.45;;
38190;SDS011;25191;47.510;19.124;2022-11-30T07:27:04;17.83;;;6.30;;
38190;SDS011;25191;47.510;19.124;2022-11-30T07:37:06;15.32;;;5.95;;
38190;SDS011;25191;47.510;19.124;2022-11-30T07:47:06;12.30;;;5.70;;
38190;SDS011;25191;47.510;19.124;2022-11-30T07:57:06;11.45;;;5.53;;
38190;SDS011;25191;47.510;19.124;2022-11-30T08:07:09;12.68;;;5.30;;
38190;SDS011;25191;47.510;19.124;2022-11-30T08:17:09;8.57;;;4.73;;
38190;SDS011;25191;47.510;19.124;2022-11-30T08:27:10;8.63;;;4.85;;
38190;SDS011;25191;47.510;19.124;2022-11-30T08:37:11;7.63;;;4.90;;
38190;SDS011;25191;47.510;19.124;2022-11-30T08:47:11;7.93;;;4.78;;
38190;SDS011;25191;47.510;19.124;2022-11-30T08:57:13;11.52;;;5.13;;
38190;SDS011;25191;47.510;19.124;2022-11-30T09:07:14;8.17;;;4.57;;
38190;SDS011;25191;47.510;19.124;2022-11-30T09:17:14;9.60;;;4.50;;
38190;SDS011;25191;47.510;19.124;2022-11-30T09:27:15;10.20;;;5.70;;
38190;SDS011;25191;47.510;19.124;2022-11-30T09:37:15;9.23;;;6.22;;
38190;SDS011;25191;47.510;19.124;2022-11-30T09:47:24;16.30;;;10.85;;
38190;SDS011;25191;47.510;19.124;2022-11-30T10:07:43;17.67;;;11.32;;
38190;SDS011;25191;47.510;19.124;2022-11-30T10:18:14;15.13;;;10.30;;
38190;SDS011;25191;47.510;19.124;2022-11-30T10:29:13;13.85;;;9.93;;
38190;SDS011;25191;47.510;19.124;2022-11-30T10:38:54;14.55;;;10.52;;
38190;SDS011;25191;47.510;19.124;2022-11-30T10:49:06;11.05;;;7.80;;
38190;SDS011;25191;47.510;19.124;2022-11-30T11:09:43;12.07;;;8.40;;
38190;SDS011;25191;47.510;19.124;2022-11-30T11:19:48;13.88;;;10.23;;
38190;SDS011;25191;47.510;19.124;2022-11-30T11:29:59;12.53;;;7.47;;
38190;SDS011;25191;47.510;19.124;2022-11-30T11:40:16;12.13;;;7.57;;
38190;SDS011;25191;47.510;19.124;2022-11-30T11:50:21;10.32;;;7.22;;
38190;SDS011;25191;47.510;19.124;2022-11-30T12:00:25;11.15;;;6.78;;
38190;SDS011;25191;47.510;19.124;2022-11-30T12:31:13;12.70;;;8.57;;
38190;SDS011;25191;47.510;19.124;2022-11-30T12:41:29;11.07;;;7.72;;
38190;SDS011;25191;47.510;19.124;2022-11-30T12:51:39;12.65;;;7.18;;
38190;SDS011;25191;47.510;19.124;2022-11-30T13:01:58;9.38;;;6.75;;
38190;SDS011;25191;47.510;19.124;2022-11-30T13:43:19;15.02;;;7.43;;
38190;SDS011;25191;47.510;19.124;2022-11-30T13:53:30;13.82;;;6.57;;
38190;SDS011;25191;47.510;19.124;2022-11-30T14:03:34;10.15;;;6.00;;
38190;SDS011;25191;47.510;19.124;2022-11-30T14:13:37;11.05;;;5.95;;
38190;SDS011;25191;47.510;19.124;2022-11-30T14:33:42;9.05;;;6.43;;
38190;SDS011;25191;47.510;19.124;2022-11-30T14:44:02;11.07;;;5.88;;
38190;SDS011;25191;47.510;19.124;2022-11-30T14:54:08;9.75;;;6.47;;
38190;SDS011;25191;47.510;19.124;2022-11-30T15:04:16;10.10;;;6.07;;
38190;SDS011;25191;47.510;19.124;2022-11-30T15:14:17;13.25;;;6.20;;
38190;SDS011;25191;47.510;19.124;2022-11-30T15:24:18;9.75;;;5.70;;
38190;SDS011;25191;47.510;19.124;2022-11-30T15:34:31;9.13;;;6.25;;
38190;SDS011;25191;47.510;19.124;2022-11-30T15:54:49;13.50;;;7.32;;
38190;SDS011;25191;47.510;19.124;2022-11-30T16:14:56;10.88;;;6.65;;
38190;SDS011;25191;47.510;19.124;2022-11-30T16:24:58;10.65;;;7.38;;
38190;SDS011;25191;47.510;19.124;2022-11-30T16:34:58;10.60;;;7.68;;
38190;SDS011;25191;47.510;19.124;2022-11-30T16:44:58;11.88;;;7.63;;
38190;SDS011;25191;47.510;19.124;2022-11-30T16:54:59;17.40;;;8.38;;
38190;SDS011;25191;47.510;19.124;2022-11-30T17:04:59;20.17;;;9.77;;
38190;SDS011;25191;47.510;19.124;2022-11-30T17:15:00;19.50;;;9.23;;
38190;SDS011;25191;47.510;19.124;2022-11-30T17:25:01;14.95;;;8.45;;
38190;SDS011;25191;47.510;19.124;2022-11-30T17:35:03;18.45;;;8.30;;
38190;SDS011;25191;47.510;19.124;2022-11-30T17:45:04;13.57;;;7.28;;
38190;SDS011;25191;47.510;19.124;2022-11-30T17:55:05;22.60;;;10.48;;
38190;SDS011;25191;47.510;19.124;2022-11-30T18:05:06;26.15;;;11.95;;
38190;SDS011;25191;47.510;19.124;2022-11-30T18:15:07;42.85;;;23.52;;
38190;SDS011;25191;47.510;19.124;2022-11-30T18:25:08;58.40;;;30.10;;
38190;SDS011;25191;47.510;19.124;2022-11-30T18:35:08;46.85;;;28.42;;
38190;SDS011;25191;47.510;19.124;2022-11-30T18:45:09;63.60;;;27.73;;
38190;SDS011;25191;47.510;19.124;2022-11-30T18:55:09;40.25;;;26.23;;
38190;SDS011;25191;47.510;19.124;2022-11-30T19:05:10;41.92;;;25.08;;
38190;SDS011;25191;47.510;19.124;2022-11-30T19:15:10;37.47;;;23.55;;
38190;SDS011;25191;47.510;19.124;2022-11-30T19:25:11;34.08;;;22.48;;
38190;SDS011;25191;47.510;19.124;2022-11-30T19:35:11;42.75;;;22.42;;
38190;SDS011;25191;47.510;19.124;2022-11-30T19:45:11;35.63;;;21.30;;
38190;SDS011;25191;47.510;19.124;2022-11-30T19:55:12;33.55;;;20.40;;
38190;SDS011;25191;47.510;19.124;2022-11-30T20:05:12;26.33;;;17.55;;
38190;SDS011;25191;47.510;19.124;2022-11-30T20:15:14;28.73;;;17.08;;
38190;SDS011;25191;47.510;19.124;2022-11-30T20:25:14;23.45;;;16.33;;
38190;SDS011;25191;47.510;19.124;2022-11-30T20:35:15;24.27;;;14.98;;
38190;SDS011;25191;47.510;19.124;2022-11-30T20:45:18;21.42;;;13.80;;
38190;SDS011;25191;47.510;19.124;2022-11-30T20:55:19;21.80;;;13.18;;
38190;SDS011;25191;47.510;19.124;2022-11-30T21:05:19;22.60;;;13.38;;
38190;SDS011;25191;47.510;19.124;2022-11-30T21:15:19;21.58;;;12.32;;
38190;SDS011;25191;47.510;19.124;2022-11-30T21:25:20;18.83;;;11.70;;
38190;SDS011;25191;47.510;19.124;2022-11-30T21:35:20;18.88;;;11.70;;
38190;SDS011;25191;47.510;19.124;2022-11-30T21:45:21;16.90;;;10.60;;
38190;SDS011;25191;47.510;19.124;2022-11-30T21:55:22;16.25;;;10.40;;
38190;SDS011;25191;47.510;19.124;2022-11-30T22:05:22;16.85;;;10.23;;
38190;SDS011;25191;47.510;19.124;2022-11-30T22:15:23;19.27;;;9.38;;
38190;SDS011;25191;47.510;19.124;2022-11-30T22:25:23;15.35;;;9.27;;
38190;SDS011;25191;47.510;19.124;2022-11-30T22:35:24;12.40;;;8.60;;
38190;SDS011;25191;47.510;19.124;2022-11-30T22:45:24;13.48;;;8.68;;
38190;SDS011;25191;47.510;19.124;2022-11-30T22:55:24;14.75;;;8.93;;
38190;SDS011;25191;47.510;19.124;2022-11-30T23:05:26;14.05;;;7.90;;
38190;SDS011;25191;47.510;19.124;2022-11-30T23:15:26;13.93;;;8.23;;
38190;SDS011;25191;47.510;19.124;2022-11-30T23:25:27;11.23;;;7.13;;
38190;SDS011;25191;47.510;19.124;2022-11-30T23:35:28;10.75;;;6.65;;
38190;SDS011;25191;47.510;19.124;2022-11-30T23:45:28;11.13;;;7.15;;
38190;SDS011;25191;47.510;19.124;2022-11-30T23:55:29;8.75;;;6.25;;
